CYBB/YBB METAR and TAF weather

Enter ICAO airport designator
Station Type Date Time Source
CYBB METAR 2020/02/29 00:00 UTC NOAA

CYBB 290000Z 26007KT 15SM IC FEW120 M34/M37 A3008 RMK AC1 0.4/HARD PACK/LAST STFD OBS/NXT/291600Z SLP191


Station Type Date Time Source
CYBB Decoded METAR 2020/02/29 00:00 UTC NOAA

Pelly Bay Airport, Canada (CYBB) 68-32N 089-49W
Feb 28, 2020 - 07:00 PM EST / 2020.02.29 0000 UTC
Wind: from the W (260 degrees) at 8 MPH (7 KT):0
Visibility: 15 mile(s):0
Sky conditions: mostly clear
Weather: ice crystals
Temperature: -29 F (-34 C)
Windchill: -49 F (-45 C):2
Dew Point: -34 F (-37 C)
Relative Humidity: 74%
Pressure (altimeter): 30.08 in. Hg (1018 hPa)
ob: CYBB 290000Z 26007KT 15SM IC FEW120 M34/M37 A3008 RMK AC1 0.4/HARD PACK/LAST STFD OBS/NXT/291600Z SLP191
cycle: 0

Station Type Date Time Source
CYBB TAF 2020/02/28 19:30 UTC NOAA

TAF
AMD TAF
AMD CYBB 281928Z 2819/2824 23010KT P6SM BKN100
TEMPO 2819/2824 5SM -SN
RMK NXT FCST WILL BE ISSUED AT 291745Z

Example: see airport list